Uhta, Russia
Current Conditions -  °F | °C
As of 3:30 AM on Thursday 23 Oct 2014 (Local Time) from UUYY Reporting Station
Snow Showers Snow Showers  
Wind Chill:   Ceiling: 1600
Heat Index: 16°   Visibility: 0.68mi
Dew Point: 12°   Wind: 18mph
Humidity: 86%   Direction: 20°NNE
Pressure: 29.83"   Gusts: 25mph
Location:  63.56°N, 53.69°E
Report Text: UUYY 230030Z 02008G11MPS 1100 R01/P1500D SHSN SCT008 BKN016CBOVC066 M09/M11 Q1010 TEMPO 0500 +SHSN 0149//41 RMK QFE748/0998
Loading
Personal Weather Stations






























Interactive Weather Map
Tropical Storm Tracking
New forecast layout! Learn more

10-Day Weather Forecast

Advertisements
Track Severe Weather on mobile